Impacts TAF Board INFO
FOR SITUATIONAL AWARENESS. NOT TO BE USED FOR FLIGHT PLANNING PURPOSES.
IDs:

KSLC - Salt Lake City Intl, UT, US

Issued at 2336 UTC 22 Jun 2018
Updated at 0039 UTC 23 Jun 2018
Potential Impact None Slight Moderate High
Time2354Z 23/01Z 23/02Z 23/03Z 23/04Z 23/05Z 23/06Z 23/07Z 23/08Z 23/09Z 23/10Z 23/11Z 23/12Z 23/13Z>>
Type OBS PRVL PRVL PRVL PRVL PRVL PRVL PRVL PRVL PRVL PRVL PRVL PRVL PRVL
VIS 10 >6 >6 >6 >6 >6 >6 >6 >6 >6 >6 >6 >6 >6
CIG -- -- -- -- -- -- -- -- -- -- -- -- -- --
Cover FEW FEW FEW SCT SCT SCT SCT SCT SCT SCT SCT SCT SCT SCT
FltCat VFR VFR VFR VFR VFR VFR VFR VFR VFR VFR VFR VFR VFR VFR
WX -- -- -- -- -- -- -- -- -- -- -- -- -- --
WDir 350 330 330 150 150 150 150 150 150 150 150 150 150 150
WSpd 8 8 8 8 8 8 8 8 8 8 8 8 8 8
WGst -- -- -- -- -- -- -- -- -- -- -- -- -- --

Raw TAF
KSLC 222336Z 2300/2406 33008KT P6SM FEW120
  FM230300 15008KT P6SM FEW120 SCT200
  FM231700 31011KT P6SM SCT080
  FM232000 32012G22KT P6SM SCT080
  FM240500 15006KT P6SM FEW120


Raw METAR
KSLC 222354Z 35008KT 10SM FEW230 29/00 A3000 RMK AO2 SLP107 T02940000 10294 20244 56018
KSLC 222254Z 30011KT 10SM FEW230 29/M01 A3002 RMK AO2 SLP110 T02941011
KSLC 222154Z 28004G15KT 10SM FEW220 28/04 A3004 RMK AO2 SLP118 T02780044

METAR Board
Radar Display
Forecast Discussion

FOR SITUATIONAL AWARENESS. NOT TO BE USED FOR FLIGHT PLANNING PURPOSES.